Time;durP1;ratioP1;P1;durP2;ratioP2;P2;SDS_P1;SDS_P2;PMS_P1;PMS_P2;Temp;Humidity;BMP_temperature;BMP_pressure;BME280_temperature;BME280_humidity;BME280_pressure;Samples;Min_cycle;Max_cycle;Signal;HPM_P1;HPM_P2
2023/01/21 00:00:56;;;;;;;4.97;2.67;;;19.30;53.10;;;;;;5052685;28;20551;-63
2023/01/21 00:03:21;;;;;;;4.78;2.40;;;19.30;53.10;;;;;;5059369;28;20043;-63
2023/01/21 00:05:47;;;;;;;5.38;2.72;;;19.30;53.10;;;;;;5051285;28;20084;-62
2023/01/21 00:08:12;;;;;;;4.68;2.47;;;19.30;53.10;;;;;;5051897;28;20043;-62
2023/01/21 00:10:38;;;;;;;4.53;2.50;;;19.30;53.00;;;;;;5051669;28;20052;-62
2023/01/21 00:13:03;;;;;;;5.22;2.67;;;19.30;53.10;;;;;;5051993;28;20127;-62
2023/01/21 00:15:29;;;;;;;4.25;2.53;;;19.20;53.00;;;;;;5052053;28;20049;-62
2023/01/21 00:17:55;;;;;;;4.57;2.53;;;19.20;53.00;;;;;;5051636;28;20362;-63
2023/01/21 00:20:20;;;;;;;3.67;2.15;;;19.20;53.00;;;;;;5051845;28;20515;-63
2023/01/21 00:22:46;;;;;;;6.20;2.80;;;19.20;53.00;;;;;;5052242;28;20456;-62
2023/01/21 00:25:11;;;;;;;5.13;2.55;;;19.20;53.00;;;;;;5045679;28;20041;-62
2023/01/21 00:27:37;;;;;;;5.68;2.67;;;19.20;53.00;;;;;;5052074;28;20047;-62
2023/01/21 00:30:03;;;;;;;4.97;2.58;;;19.20;53.00;;;;;;5052056;28;20041;-62
2023/01/21 00:32:29;;;;;;;5.97;2.55;;;19.10;53.00;;;;;;5051226;28;20056;-62
2023/01/21 00:34:54;;;;;;;3.67;2.38;;;19.10;52.90;;;;;;5050752;28;20041;-63
2023/01/21 00:37:20;;;;;;;4.75;2.65;;;19.10;53.00;;;;;;5051468;28;20052;-62
2023/01/21 00:39:45;;;;;;;4.13;2.28;;;19.10;53.00;;;;;;5051359;28;20052;-62
2023/01/21 00:42:11;;;;;;;3.92;2.58;;;19.10;53.00;;;;;;5051956;28;20069;-62
2023/01/21 00:44:39;;;;;;;4.10;2.53;;;19.00;52.90;;;;;;5052246;28;20036;-62
2023/01/21 00:47:05;;;;;;;4.60;2.33;;;19.10;53.00;;;;;;5050238;28;20057;-62
2023/01/21 00:49:31;;;;;;;5.25;2.53;;;19.00;52.90;;;;;;5051833;28;20049;-62
2023/01/21 00:51:56;;;;;;;3.55;2.00;;;19.00;52.90;;;;;;5051824;28;20045;-63
2023/01/21 00:54:22;;;;;;;4.03;2.28;;;19.00;52.90;;;;;;5049562;28;20433;-63
2023/01/21 00:56:48;;;;;;;6.00;2.47;;;19.00;52.90;;;;;;5052117;28;20088;-62
2023/01/21 00:59:13;;;;;;;3.70;2.28;;;19.00;52.90;;;;;;5051753;28;20051;-62
2023/01/21 01:01:39;;;;;;;3.60;2.17;;;19.00;52.90;;;;;;5051185;28;20063;-62
2023/01/21 01:04:05;;;;;;;3.75;2.10;;;18.90;52.90;;;;;;5051669;28;20084;-62
2023/01/21 01:06:30;;;;;;;3.83;2.40;;;18.90;52.90;;;;;;5049247;28;20044;-63
2023/01/21 01:08:59;;;;;;;4.15;1.90;;;18.90;52.90;;;;;;5054634;28;20059;-62
2023/01/21 01:11:25;;;;;;;;;;;18.90;52.90;;;;;;5054349;28;20052;-63
2023/01/21 01:13:54;;;;;;;6.22;2.67;;;18.90;52.90;;;;;;5054485;28;19921;-63
2023/01/21 01:16:22;;;;;;;4.18;2.45;;;18.90;52.90;;;;;;5055164;28;20041;-62
2023/01/21 01:18:47;;;;;;;4.40;2.30;;;18.90;52.90;;;;;;5062154;28;20037;-63
2023/01/21 01:21:15;;;;;;;3.00;2.03;;;18.90;52.80;;;;;;5074217;28;20044;-62
2023/01/21 01:23:41;;;;;;;4.50;2.50;;;18.90;52.80;;;;;;5075305;28;20400;-63
2023/01/21 01:26:08;;;;;;;4.53;2.30;;;18.90;52.80;;;;;;5075466;28;20806;-62
2023/01/21 01:28:34;;;;;;;2.53;1.67;;;18.90;52.90;;;;;;5072977;28;20041;-62
2023/01/21 01:31:00;;;;;;;3.65;2.33;;;18.80;52.80;;;;;;5074841;28;20052;-62
2023/01/21 01:33:25;;;;;;;4.90;2.45;;;18.80;52.80;;;;;;5075006;28;20127;-62
2023/01/21 01:35:51;;;;;;;4.38;2.05;;;18.80;52.80;;;;;;5073102;28;20131;-62
2023/01/21 01:38:19;;;;;;;4.93;2.50;;;18.80;52.80;;;;;;5074760;28;20059;-62
2023/01/21 01:40:45;;;;;;;4.13;2.50;;;18.80;52.80;;;;;;5075006;28;20467;-62
2023/01/21 01:43:16;;;;;;;3.50;2.13;;;18.80;52.70;;;;;;5073930;28;20045;-62
2023/01/21 01:45:42;;;;;;;5.07;2.28;;;18.90;52.70;;;;;;5073690;28;20503;-62
2023/01/21 01:48:08;;;;;;;3.75;2.35;;;18.90;52.70;;;;;;5075199;28;20044;-62
2023/01/21 01:50:35;;;;;;;3.70;2.08;;;18.90;52.80;;;;;;5072362;28;20060;-62
2023/01/21 01:53:00;;;;;;;4.57;2.15;;;18.90;53.40;;;;;;5074717;28;20080;-62
2023/01/21 01:55:27;;;;;;;4.60;2.30;;;18.90;52.70;;;;;;5074328;28;20102;-62
2023/01/21 01:57:53;;;;;;;3.78;2.00;;;18.90;52.70;;;;;;5073818;28;20072;-62
2023/01/21 02:00:19;;;;;;;4.88;2.63;;;18.90;52.60;;;;;;5074361;28;20133;-62
2023/01/21 02:03:43;;;;;;;3.40;2.28;;;18.90;52.60;;;;;;5073877;28;20094;-62
2023/01/21 02:05:32;;;;;;;3.95;2.10;;;18.90;52.60;;;;;;5073612;28;20134;-63
2023/01/21 02:07:57;;;;;;;4.55;2.33;;;18.90;52.60;;;;;;5073572;28;20595;-63
2023/01/21 02:10:23;;;;;;;5.22;2.58;;;18.90;52.50;;;;;;5073586;28;20119;-62
2023/01/21 02:12:48;;;;;;;4.10;1.92;;;18.90;52.50;;;;;;5074090;28;20048;-63
2023/01/21 02:15:14;;;;;;;4.63;2.58;;;18.90;52.50;;;;;;5073801;28;20057;-62
2023/01/21 02:17:42;;;;;;;3.67;2.28;;;18.90;52.50;;;;;;5072659;28;20040;-62
2023/01/21 02:20:26;;;;;;;2.97;1.90;;;18.90;52.40;;;;;;5069205;28;20123;-63
2023/01/21 02:23:12;;;;;;;3.20;2.17;;;18.90;52.50;;;;;;5074093;28;20135;-63
2023/01/21 02:25:41;;;;;;;6.63;2.85;;;18.90;52.30;;;;;;5057093;28;20068;-63
2023/01/21 02:28:26;;;;;;;3.88;2.22;;;18.90;52.30;;;;;;5053245;28;20044;-62
2023/01/21 02:31:20;;;;;;;3.65;2.33;;;18.90;52.20;;;;;;5052275;28;20044;-63
2023/01/21 02:34:20;;;;;;;4.03;2.33;;;18.90;52.20;;;;;;5052617;28;20404;-62
2023/01/21 02:37:06;;;;;;;4.82;2.15;;;18.90;52.20;;;;;;5053990;28;20041;-63
2023/01/21 02:39:50;;;;;;;3.08;1.90;;;18.90;52.20;;;;;;5052501;28;20114;-63
2023/01/21 02:42:27;;;;;;;4.32;2.15;;;18.90;52.20;;;;;;5053857;28;20047;-63
2023/01/21 02:45:38;;;;;;;3.63;2.45;;;19.00;52.20;;;;;;5052010;28;20052;-63
2023/01/21 02:48:10;;;;;;;3.00;2.33;;;19.00;52.20;;;;;;5052363;28;20052;-63
2023/01/21 02:50:47;;;;;;;4.85;2.67;;;18.90;52.10;;;;;;5052451;28;20405;-63
2023/01/21 02:53:29;;;;;;;3.13;2.10;;;19.00;52.10;;;;;;5052659;28;20581;-64
2023/01/21 02:55:56;;;;;;;4.40;2.38;;;19.00;52.00;;;;;;5065641;28;20419;-64
2023/01/21 02:58:27;;;;;;;4.43;2.30;;;19.00;52.10;;;;;;5072043;28;20071;-64
2023/01/21 03:01:02;;;;;;;3.78;2.03;;;19.00;52.00;;;;;;5066104;28;20037;-64
2023/01/21 03:03:41;;;;;;;3.30;2.13;;;19.00;51.90;;;;;;5053281;28;20128;-64
2023/01/21 03:06:17;;;;;;;3.55;2.10;;;19.00;51.90;;;;;;5050921;28;20045;-64
2023/01/21 03:08:52;;;;;;;3.60;2.17;;;19.00;51.90;;;;;;5052289;28;20045;-64
2023/01/21 03:11:19;;;;;;;4.65;2.58;;;19.00;51.90;;;;;;5052046;28;20102;-64
2023/01/21 03:16:57;;;;;;;4.28;2.20;;;19.00;51.80;;;;;;5052497;28;20052;-64
2023/01/21 03:19:31;;;;;;;3.40;2.10;;;19.10;51.90;;;;;;5052604;28;20095;-64
2023/01/21 03:21:58;;;;;;;4.03;2.00;;;19.00;51.80;;;;;;5051466;28;20119;-63
2023/01/21 03:24:23;;;;;;;3.38;2.13;;;19.00;51.80;;;;;;5052428;28;20045;-64
2023/01/21 03:26:49;;;;;;;3.38;1.90;;;19.10;51.90;;;;;;5052842;28;20052;-63
2023/01/21 03:29:18;;;;;;;3.63;2.03;;;19.00;51.80;;;;;;5050743;28;20132;-63
2023/01/21 03:31:45;;;;;;;3.60;2.30;;;19.00;51.90;;;;;;5051234;28;20056;-63
2023/01/21 03:34:11;;;;;;;3.28;2.05;;;19.00;51.80;;;;;;5050340;28;20504;-63
2023/01/21 03:36:50;;;;;;;3.28;2.08;;;19.10;51.80;;;;;;5051999;28;20040;-63
2023/01/21 03:39:29;;;;;;;3.63;2.15;;;19.10;51.80;;;;;;5052807;28;20060;-63
2023/01/21 03:41:54;;;;;;;3.33;1.90;;;19.10;51.70;;;;;;5051095;28;20055;-63
2023/01/21 03:44:20;;;;;;;3.47;1.95;;;19.10;51.80;;;;;;5052315;28;20045;-63
2023/01/21 03:47:12;;;;;;;3.30;2.28;;;19.10;51.70;;;;;;5052654;28;20080;-63
2023/01/21 03:49:47;;;;;;;3.30;1.92;;;19.10;51.70;;;;;;5050908;28;20156;-63
2023/01/21 03:52:12;;;;;;;2.80;1.90;;;19.10;51.70;;;;;;5052538;28;20049;-63
2023/01/21 03:54:39;;;;;;;4.18;2.40;;;19.10;51.70;;;;;;5034198;28;20412;-63
2023/01/21 03:57:04;;;;;;;3.63;2.20;;;19.10;51.70;;;;;;5045535;28;20119;-63
2023/01/21 03:59:30;;;;;;;3.25;2.08;;;19.10;51.70;;;;;;5052311;28;20071;-63
2023/01/21 04:01:55;;;;;;;3.60;1.90;;;19.10;51.60;;;;;;5052765;28;20045;-63
2023/01/21 04:04:21;;;;;;;3.70;1.88;;;19.10;51.70;;;;;;5051500;28;20064;-63
2023/01/21 04:06:46;;;;;;;3.30;1.80;;;19.10;51.70;;;;;;5052686;28;20477;-63
2023/01/21 04:09:12;;;;;;;3.20;2.20;;;19.10;51.60;;;;;;5051224;28;20037;-64
2023/01/21 04:11:38;;;;;;;3.47;2.00;;;19.10;51.60;;;;;;5052150;28;20131;-63
2023/01/21 04:14:03;;;;;;;3.65;2.00;;;19.10;51.70;;;;;;5051937;28;20057;-64
2023/01/21 04:16:29;;;;;;;3.30;1.98;;;19.10;51.60;;;;;;5051267;28;20048;-63
2023/01/21 04:18:54;;;;;;;3.20;2.00;;;19.10;51.70;;;;;;5052098;28;20037;-63
2023/01/21 04:21:20;;;;;;;2.60;1.95;;;19.10;51.60;;;;;;5052011;28;20193;-63
2023/01/21 04:23:45;;;;;;;3.58;2.08;;;19.20;51.70;;;;;;5051204;28;20512;-63
2023/01/21 04:26:11;;;;;;;4.93;2.30;;;19.20;51.70;;;;;;5052175;28;20428;-63
2023/01/21 04:28:36;;;;;;;2.13;1.65;;;19.20;51.70;;;;;;5052386;28;20036;-63
2023/01/21 04:31:02;;;;;;;3.50;1.80;;;19.20;51.70;;;;;;5051350;28;20127;-63
2023/01/21 04:33:29;;;;;;;3.30;1.70;;;19.20;51.70;;;;;;5051975;28;20045;-63
2023/01/21 04:35:58;;;;;;;3.08;1.77;;;19.20;51.70;;;;;;5051650;28;20057;-62
2023/01/21 04:38:24;;;;;;;3.47;2.03;;;19.20;51.60;;;;;;5051010;28;20087;-63
2023/01/21 04:40:49;;;;;;;4.03;2.28;;;19.20;51.60;;;;;;5052028;28;20512;-63
2023/01/21 04:43:15;;;;;;;3.17;1.63;;;19.20;51.60;;;;;;5055580;28;20037;-63
2023/01/21 04:45:40;;;;;;;3.03;1.75;;;19.20;51.60;;;;;;5055620;28;20546;-63
2023/01/21 04:48:06;;;;;;;4.47;2.25;;;19.20;51.60;;;;;;5056058;28;20496;-64
2023/01/21 04:50:32;;;;;;;3.90;2.22;;;19.30;51.60;;;;;;5054516;28;20052;-64
2023/01/21 04:52:57;;;;;;;3.25;2.17;;;19.30;51.60;;;;;;5053696;28;20044;-63
2023/01/21 04:55:23;;;;;;;3.40;1.90;;;19.30;51.70;;;;;;5055620;28;20091;-63
2023/01/21 04:57:48;;;;;;;3.30;1.67;;;19.30;51.60;;;;;;5055658;28;20087;-64
2023/01/21 05:00:15;;;;;;;2.92;1.77;;;19.30;51.60;;;;;;5053812;28;20048;-63
2023/01/21 05:02:40;;;;;;;3.15;1.80;;;19.30;51.50;;;;;;5049226;28;20094;-64
2023/01/21 05:05:06;;;;;;;3.58;1.80;;;19.30;51.50;;;;;;5055173;28;20049;-64
2023/01/21 05:07:31;;;;;;;3.75;1.90;;;19.30;51.50;;;;;;5054006;28;20041;-64
2023/01/21 05:09:57;;;;;;;3.33;1.98;;;19.30;51.50;;;;;;5055673;28;20037;-64
2023/01/21 05:12:23;;;;;;;4.15;1.90;;;19.30;51.50;;;;;;5055211;28;20647;-64
2023/01/21 05:14:52;;;;;;;2.92;1.85;;;19.30;51.50;;;;;;5054456;28;20448;-64
2023/01/21 05:17:17;;;;;;;3.55;1.95;;;19.30;51.50;;;;;;5055289;28;20072;-64
2023/01/21 05:19:43;;;;;;;2.95;2.05;;;19.40;51.60;;;;;;5050423;28;20084;-64
2023/01/21 05:22:09;;;;;;;2.83;1.80;;;19.30;51.60;;;;;;5055089;28;20052;-64
2023/01/21 05:24:34;;;;;;;2.90;1.75;;;19.30;51.50;;;;;;5055282;28;20048;-64
2023/01/21 05:27:00;;;;;;;2.42;1.73;;;19.30;51.50;;;;;;5054614;28;20043;-63
2023/01/21 05:29:25;;;;;;;2.90;1.65;;;19.40;51.50;;;;;;5054783;28;20064;-63
2023/01/21 05:31:51;;;;;;;3.20;2.08;;;19.40;51.50;;;;;;5054186;28;20124;-63
2023/01/21 05:34:16;;;;;;;3.78;1.90;;;19.40;51.50;;;;;;5052713;28;20063;-64
2023/01/21 05:36:42;;;;;;;2.50;1.80;;;19.40;51.40;;;;;;5055129;28;20052;-64
2023/01/21 05:39:07;;;;;;;3.05;1.70;;;19.40;51.40;;;;;;5054892;28;20048;-64
2023/01/21 05:41:33;;;;;;;2.92;1.80;;;19.40;51.40;;;;;;5053987;28;20056;-64
2023/01/21 05:43:58;;;;;;;2.67;1.88;;;19.40;51.40;;;;;;5054813;28;20048;-64
2023/01/21 05:46:24;;;;;;;2.85;1.60;;;19.40;51.40;;;;;;5054852;28;20117;-63
2023/01/21 05:48:49;;;;;;;2.83;1.70;;;19.40;51.30;;;;;;5054220;28;20050;-64
2023/01/21 05:51:15;;;;;;;2.75;1.80;;;19.40;51.30;;;;;;5054229;28;20399;-64
2023/01/21 05:53:40;;;;;;;3.17;1.80;;;19.40;51.30;;;;;;5054242;28;20457;-64
2023/01/21 05:56:06;;;;;;;3.00;1.90;;;19.50;51.30;;;;;;5052591;28;20049;-64
2023/01/21 05:58:32;;;;;;;3.33;1.90;;;19.40;51.20;;;;;;5053465;28;20040;-63
2023/01/21 06:00:58;;;;;;;2.67;1.58;;;19.50;51.30;;;;;;5054699;28;20123;-64
2023/01/21 06:03:23;;;;;;;3.47;1.70;;;19.50;51.30;;;;;;5052611;28;20041;-64
2023/01/21 06:05:49;;;;;;;3.33;1.85;;;19.50;51.30;;;;;;5054396;28;20037;-64
2023/01/21 06:08:15;;;;;;;3.00;1.67;;;19.50;51.30;;;;;;5054303;28;20439;-64
2023/01/21 06:10:41;;;;;;;3.60;1.90;;;19.50;51.30;;;;;;5053755;28;20052;-63
2023/01/21 06:13:07;;;;;;;3.45;1.80;;;19.50;51.30;;;;;;5054007;28;20041;-64
2023/01/21 06:15:33;;;;;;;2.75;1.58;;;19.50;51.20;;;;;;5052860;28;20089;-63
2023/01/21 06:17:59;;;;;;;2.28;1.55;;;19.50;51.20;;;;;;5053901;28;20124;-63
2023/01/21 06:20:25;;;;;;;3.25;1.70;;;19.50;51.10;;;;;;5053933;28;20041;-64
2023/01/21 06:22:51;;;;;;;3.58;1.70;;;19.50;51.20;;;;;;5053616;28;20045;-64
2023/01/21 06:25:16;;;;;;;2.97;1.80;;;19.50;51.20;;;;;;5053955;28;20037;-63
2023/01/21 06:27:42;;;;;;;3.42;1.80;;;19.50;51.20;;;;;;5054470;28;20045;-63
2023/01/21 06:30:08;;;;;;;2.67;1.40;;;19.50;51.20;;;;;;5052729;28;20045;-63
2023/01/21 06:32:34;;;;;;;2.97;1.83;;;19.60;51.20;;;;;;5054170;28;20163;-64
2023/01/21 06:35:00;;;;;;;2.97;1.73;;;19.60;51.20;;;;;;5054182;28;20094;-64
2023/01/21 06:37:25;;;;;;;2.97;1.60;;;19.60;51.30;;;;;;5052935;28;20052;-64
2023/01/21 06:39:51;;;;;;;3.10;1.83;;;19.60;51.20;;;;;;5053923;28;20052;-63
2023/01/21 06:42:17;;;;;;;2.35;1.50;;;19.60;51.20;;;;;;5053678;28;20040;-64
2023/01/21 06:44:45;;;;;;;2.60;1.52;;;19.60;51.10;;;;;;5053178;28;20132;-64
2023/01/21 06:47:11;;;;;;;2.97;1.98;;;19.60;51.10;;;;;;5053591;28;20102;-64
2023/01/21 06:49:37;;;;;;;3.08;1.95;;;19.60;51.10;;;;;;5053604;28;20397;-63
2023/01/21 06:52:03;;;;;;;2.85;1.73;;;19.60;51.10;;;;;;5053162;28;20526;-64
2023/01/21 06:54:28;;;;;;;2.88;1.50;;;19.60;51.10;;;;;;5053106;28;20044;-64
2023/01/21 06:56:54;;;;;;;3.05;1.50;;;19.60;51.10;;;;;;5053818;28;20052;-63
2023/01/21 06:59:19;;;;;;;3.00;1.80;;;19.60;51.10;;;;;;5051991;28;20041;-74
2023/01/21 07:01:45;;;;;;;3.88;1.75;;;19.60;51.10;;;;;;5053676;28;20105;-63
2023/01/21 07:04:10;;;;;;;3.72;1.88;;;19.60;51.10;;;;;;5053137;28;20132;-62
2023/01/21 07:06:36;;;;;;;4.38;1.85;;;19.70;51.20;;;;;;5051987;28;20497;-65
2023/01/21 07:09:02;;;;;;;3.40;1.90;;;19.70;51.20;;;;;;5053569;28;20127;-65
2023/01/21 07:11:28;;;;;;;5.45;1.80;;;19.70;51.20;;;;;;5052980;28;20082;-65
2023/01/21 07:13:54;;;;;;;4.32;1.80;;;19.70;51.20;;;;;;5051822;28;20493;-65
2023/01/21 07:16:20;;;;;;;3.38;1.45;;;19.70;51.30;;;;;;5052917;28;20048;-66
2023/01/21 07:18:45;;;;;;;4.28;2.03;;;19.70;51.40;;;;;;5053012;28;20045;-65
2023/01/21 07:21:11;;;;;;;3.33;1.70;;;19.70;51.50;;;;;;5052174;28;20037;-65
2023/01/21 07:23:36;;;;;;;3.80;1.90;;;19.70;51.60;;;;;;5052154;28;20127;-65
2023/01/21 07:26:02;;;;;;;3.15;1.60;;;19.70;51.60;;;;;;5053247;28;20044;-62
2023/01/21 07:28:28;;;;;;;4.10;2.05;;;19.70;51.60;;;;;;5051968;28;20033;-69
2023/01/21 07:30:53;;;;;;;3.92;1.83;;;19.70;51.70;;;;;;5050270;28;20091;-65
2023/01/21 07:33:19;;;;;;;6.35;2.00;;;19.70;51.90;;;;;;5050202;28;20045;-68
2023/01/21 07:35:44;;;;;;;3.92;1.80;;;19.70;52.00;;;;;;5050811;28;20060;-68
2023/01/21 07:38:10;;;;;;;2.58;1.45;;;19.70;52.10;;;;;;5050228;28;20049;-68
2023/01/21 07:40:35;;;;;;;4.20;1.73;;;19.70;52.10;;;;;;5051477;28;20140;-67
2023/01/21 07:43:01;;;;;;;3.05;1.85;;;19.80;52.30;;;;;;5051588;28;20692;-68
2023/01/21 07:45:26;;;;;;;3.95;1.90;;;19.80;52.40;;;;;;5049335;28;20041;-67
2023/01/21 07:47:52;;;;;;;3.97;1.70;;;19.80;52.50;;;;;;5050142;28;20033;-67
2023/01/21 07:50:18;;;;;;;2.47;1.48;;;19.80;52.60;;;;;;5049029;28;20041;-69
2023/01/21 07:52:43;;;;;;;6.05;1.75;;;19.80;52.80;;;;;;5049097;28;20072;-68
2023/01/21 07:55:09;;;;;;;3.75;1.73;;;19.80;52.90;;;;;;5048571;28;20037;-68
2023/01/21 07:57:34;;;;;;;3.40;1.40;;;19.80;52.90;;;;;;5050822;28;20039;-68
2023/01/21 08:00:00;;;;;;;4.70;1.90;;;19.80;53.00;;;;;;5051440;28;20055;-67
2023/01/21 08:02:25;;;;;;;2.20;1.33;;;19.90;53.20;;;;;;5049384;28;20049;-66
2023/01/21 08:04:51;;;;;;;4.93;1.42;;;19.90;53.30;;;;;;5050203;28;20044;-67
2023/01/21 08:07:17;;;;;;;3.20;1.70;;;19.90;53.20;;;;;;5050009;28;20041;-67
2023/01/21 08:09:42;;;;;;;2.85;1.58;;;19.90;53.30;;;;;;5049434;28;20085;-67
2023/01/21 08:12:08;;;;;;;2.88;1.70;;;19.90;53.40;;;;;;5050722;28;20041;-67
2023/01/21 08:14:34;;;;;;;2.55;1.40;;;19.90;53.50;;;;;;5048542;28;20045;-66
2023/01/21 08:16:59;;;;;;;3.47;1.42;;;19.90;53.40;;;;;;5047863;28;20515;-67
2023/01/21 08:19:25;;;;;;;2.70;1.48;;;19.90;53.50;;;;;;5048599;28;20055;-69
2023/01/21 08:21:51;;;;;;;3.72;1.83;;;19.90;53.60;;;;;;5049082;28;20037;-68
2023/01/21 08:24:16;;;;;;;2.17;1.50;;;19.90;53.70;;;;;;5048022;28;20116;-67
2023/01/21 08:26:42;;;;;;;3.15;1.63;;;20.00;53.80;;;;;;5050501;28;20041;-66
2023/01/21 08:29:08;;;;;;;4.13;1.60;;;20.00;53.80;;;;;;5049959;28;20370;-67
2023/01/21 08:31:33;;;;;;;2.25;1.50;;;20.00;53.80;;;;;;5049038;28;20562;-67
2023/01/21 08:33:59;;;;;;;3.45;1.75;;;20.00;53.80;;;;;;5048640;28;20044;-67
2023/01/21 08:36:24;;;;;;;4.40;1.50;;;20.00;53.80;;;;;;5048984;28;20045;-67
2023/01/21 08:38:54;;;;;;;4.10;1.77;;;20.00;53.90;;;;;;5047062;28;20039;-67
2023/01/21 08:41:19;;;;;;;7.60;1.70;;;20.00;53.90;;;;;;5048885;28;20041;-66
2023/01/21 08:43:45;;;;;;;2.45;1.40;;;20.00;53.90;;;;;;5049407;28;20382;-67
2023/01/21 08:46:12;;;;;;;2.80;1.27;;;20.10;54.00;;;;;;5049495;28;20556;-67
2023/01/21 08:48:37;;;;;;;2.75;1.63;;;20.00;53.90;;;;;;5050315;28;20401;-68
2023/01/21 08:51:03;;;;;;;2.67;1.58;;;20.10;53.90;;;;;;5049257;28;20037;-68
2023/01/21 08:53:28;;;;;;;2.83;1.50;;;20.10;54.00;;;;;;5049457;28;20162;-68
2023/01/21 08:55:58;;;;;;;2.65;1.35;;;20.10;54.00;;;;;;5048592;28;20162;-69
2023/01/21 08:58:24;;;;;;;3.17;1.70;;;20.10;54.10;;;;;;5047810;28;20406;-68
2023/01/21 09:00:50;;;;;;;3.05;1.40;;;20.10;54.00;;;;;;5049658;28;20043;-68
2023/01/21 09:03:18;;;;;;;4.53;1.70;;;20.10;54.00;;;;;;5049666;28;20033;-67
2023/01/21 09:05:43;;;;;;;2.77;1.23;;;20.10;54.00;;;;;;5049895;28;20092;-67
2023/01/21 09:08:09;;;;;;;3.35;1.60;;;20.10;54.00;;;;;;5049801;28;20048;-68
2023/01/21 09:13:19;;;;;;;2.58;1.42;;;20.10;54.10;;;;;;5046801;28;20451;-69
2023/01/21 09:15:44;;;;;;;2.78;1.30;;;20.10;54.00;;;;;;5049137;28;20045;-69
2023/01/21 09:18:10;;;;;;;3.28;1.35;;;20.10;54.10;;;;;;5040473;28;20053;-70
2023/01/21 09:20:37;;;;;;;3.83;1.60;;;20.10;54.00;;;;;;5042808;28;20400;-69
2023/01/21 09:23:22;;;;;;;2.28;1.30;;;20.10;54.10;;;;;;5038691;28;20463;-67
2023/01/21 09:25:52;;;;;;;2.80;1.50;;;20.10;54.00;;;;;;5045168;28;20466;-67
2023/01/21 09:28:18;;;;;;;3.65;1.55;;;20.10;54.10;;;;;;5039800;28;20080;-68
2023/01/21 09:30:44;;;;;;;2.80;1.38;;;20.10;54.10;;;;;;5044410;28;20128;-66
2023/01/21 09:33:10;;;;;;;2.47;1.40;;;20.10;53.90;;;;;;5047070;28;20441;-66
2023/01/21 09:35:36;;;;;;;4.85;1.55;;;20.10;53.90;;;;;;5052044;28;20041;-67
2023/01/21 09:38:01;;;;;;;4.85;1.65;;;20.10;53.80;;;;;;5053674;28;20481;-66
2023/01/21 09:40:27;;;;;;;3.13;1.35;;;20.10;53.70;;;;;;5046889;28;20455;-65
2023/01/21 09:42:52;;;;;;;3.42;1.80;;;20.10;53.70;;;;;;5052078;28;20036;-65
2023/01/21 09:45:18;;;;;;;2.60;1.50;;;20.10;53.60;;;;;;5052228;28;20041;-65
2023/01/21 09:47:44;;;;;;;2.30;1.45;;;20.10;53.50;;;;;;5051438;28;20033;-67
2023/01/21 09:50:18;;;;;;;5.07;2.10;;;20.00;53.50;;;;;;5052218;28;20045;-67
2023/01/21 09:52:48;;;;;;;5.45;1.70;;;20.00;53.30;;;;;;5051224;28;20041;-67
2023/01/21 09:55:23;;;;;;;3.00;1.80;;;20.00;53.30;;;;;;5033038;28;20451;-72
2023/01/21 09:57:59;;;;;;;4.15;1.77;;;20.00;53.30;;;;;;5052480;28;20045;-71
2023/01/21 10:00:30;;;;;;;6.30;2.10;;;20.00;53.50;;;;;;5051716;28;20496;-68
2023/01/21 10:03:07;;;;;;;8.93;1.90;;;19.90;53.70;;;;;;5051576;28;20140;-73
2023/01/21 10:05:52;;;;;;;8.50;2.30;;;19.90;53.70;;;;;;5051464;28;20048;-70
2023/01/21 10:08:26;;;;;;;5.07;1.77;;;19.90;53.80;;;;;;5048609;28;20053;-68
2023/01/21 10:11:07;;;;;;;7.47;1.75;;;19.90;54.00;;;;;;5051328;28;20412;-69
2023/01/21 10:13:54;;;;;;;4.15;1.40;;;19.90;54.00;;;;;;5051857;28;20064;-69
2023/01/21 10:16:38;;;;;;;3.42;1.70;;;19.90;54.10;;;;;;5051540;28;20408;-70
2023/01/21 10:19:04;;;;;;;2.70;1.75;;;19.90;54.10;;;;;;5050364;28;20037;-70
2023/01/21 10:21:43;;;;;;;2.25;1.27;;;19.90;54.20;;;;;;5051662;28;20052;-68
2023/01/21 10:24:21;;;;;;;3.15;1.52;;;19.90;54.40;;;;;;5047561;28;20102;-70
2023/01/21 10:26:47;;;;;;;3.63;1.80;;;19.90;54.40;;;;;;5051274;28;20037;-69
2023/01/21 10:29:17;;;;;;;4.90;2.10;;;19.90;54.30;;;;;;5049465;28;20404;-70
2023/01/21 10:31:45;;;;;;;4.07;1.55;;;19.90;54.40;;;;;;5050801;28;20044;-67
2023/01/21 10:34:15;;;;;;;3.90;1.60;;;19.90;54.40;;;;;;5050213;28;20102;-70
2023/01/21 10:36:47;;;;;;;2.20;1.30;;;19.90;54.30;;;;;;5049653;28;20183;-70
2023/01/21 10:39:31;;;;;;;6.68;1.73;;;19.90;54.40;;;;;;5050849;28;20041;-70
2023/01/21 10:42:15;;;;;;;3.55;1.58;;;19.90;54.40;;;;;;5050209;28;20037;-66
2023/01/21 10:44:45;;;;;;;8.00;2.13;;;19.90;54.40;;;;;;5049148;28;20537;-70
2023/01/21 10:47:17;;;;;;;4.82;1.60;;;19.90;54.30;;;;;;5050329;28;20052;-68
2023/01/21 10:49:54;;;;;;;5.20;1.50;;;19.90;54.40;;;;;;5049701;28;20126;-68
2023/01/21 10:52:34;;;;;;;3.85;1.55;;;19.90;54.40;;;;;;5036437;28;20061;-67
2023/01/21 10:55:20;;;;;;;6.60;1.65;;;19.90;54.50;;;;;;5049691;28;20040;-65
2023/01/21 10:57:57;;;;;;;5.45;1.92;;;19.90;54.40;;;;;;5050274;28;20048;-76
2023/01/21 11:00:35;;;;;;;10.50;3.67;;;19.90;55.30;;;;;;5046025;28;20045;-69
2023/01/21 11:03:04;;;;;;;8.05;3.25;;;19.90;54.80;;;;;;5028881;28;20048;-66
2023/01/21 11:05:30;;;;;;;8.23;3.20;;;19.90;54.80;;;;;;5043987;28;20041;-69
2023/01/21 11:07:56;;;;;;;7.97;3.30;;;19.90;54.80;;;;;;5049819;28;20437;-68
2023/01/21 11:10:22;;;;;;;6.93;2.47;;;20.00;54.80;;;;;;5047762;28;20056;-69
2023/01/21 11:12:48;;;;;;;4.45;2.45;;;20.00;54.60;;;;;;5049360;28;20384;-70
2023/01/21 11:15:15;;;;;;;8.40;2.33;;;20.00;54.60;;;;;;5048585;28;20485;-69
2023/01/21 11:17:42;;;;;;;5.68;2.00;;;20.00;54.50;;;;;;5050910;28;20055;-68
2023/01/21 11:20:16;;;;;;;4.88;1.88;;;20.00;54.40;;;;;;5048109;28;20040;-69
2023/01/21 11:22:44;;;;;;;5.43;2.30;;;20.00;54.50;;;;;;5050758;28;20059;-70
2023/01/21 11:25:28;;;;;;;;;;;20.00;54.50;;;;;;5050618;28;20488;-70
2023/01/21 11:27:53;;;;;;;6.82;2.17;;;20.00;54.50;;;;;;5049756;28;19928;-70
2023/01/21 11:30:39;;;;;;;6.00;2.60;;;20.00;54.50;;;;;;5054893;28;20041;-70
2023/01/21 11:33:23;;;;;;;5.50;1.95;;;20.00;54.40;;;;;;5050145;28;20048;-70
2023/01/21 11:35:49;;;;;;;3.85;1.90;;;20.00;54.40;;;;;;5049049;28;20116;-68
2023/01/21 11:38:28;;;;;;;8.88;2.10;;;20.00;54.60;;;;;;5045686;28;20116;-71
2023/01/21 11:41:03;;;;;;;;;;;20.00;54.70;;;;;;5049318;28;20043;-71
2023/01/21 11:43:39;;;;;;;5.95;1.92;;;20.00;54.70;;;;;;5049794;28;19925;-72
2023/01/21 11:46:28;;;;;;;5.50;2.20;;;20.00;54.80;;;;;;5048832;28;20116;-71
2023/01/21 11:48:55;;;;;;;6.15;1.90;;;20.00;54.80;;;;;;5051570;28;20048;-70
2023/01/21 11:51:20;;;;;;;5.50;2.00;;;20.00;54.80;;;;;;5050881;28;20099;-70
2023/01/21 11:53:46;;;;;;;4.40;1.90;;;20.00;54.60;;;;;;5051075;28;20048;-70
2023/01/21 11:56:13;;;;;;;6.70;1.90;;;20.00;54.50;;;;;;5052398;28;20091;-70
2023/01/21 11:58:39;;;;;;;5.93;2.03;;;20.00;54.50;;;;;;5051188;28;20055;-69
2023/01/21 12:01:07;;;;;;;2.83;1.48;;;20.00;54.50;;;;;;5060562;28;20434;-70
2023/01/21 12:03:37;;;;;;;3.72;1.65;;;20.00;54.50;;;;;;5071176;28;20094;-69
2023/01/21 12:06:02;;;;;;;3.38;1.55;;;20.00;54.50;;;;;;5071254;28;20055;-69
2023/01/21 12:08:29;;;;;;;3.35;1.52;;;20.00;54.50;;;;;;5058095;28;20036;-69
2023/01/21 12:10:56;;;;;;;11.13;2.30;;;20.00;54.50;;;;;;5041923;28;20037;-69
2023/01/21 12:13:49;;;;;;;3.63;1.65;;;20.00;54.50;;;;;;5054525;28;20149;-68
2023/01/21 12:16:31;;;;;;;5.53;1.90;;;20.00;54.50;;;;;;5043242;28;20540;-69
2023/01/21 12:19:15;;;;;;;6.05;2.15;;;20.00;55.30;;;;;;5048401;28;20045;-69
2023/01/21 12:21:53;;;;;;;7.72;2.45;;;20.00;54.60;;;;;;5048421;28;20425;-67
2023/01/21 12:24:57;;;;;;;7.10;2.25;;;20.00;54.80;;;;;;5048047;28;20049;-69
2023/01/21 12:27:22;;;;;;;4.78;2.00;;;20.00;55.00;;;;;;5050181;28;20045;-71
2023/01/21 12:30:03;;;;;;;5.07;2.30;;;20.00;55.00;;;;;;5041193;28;20135;-71
2023/01/21 12:32:58;;;;;;;5.97;2.17;;;20.00;55.20;;;;;;5046842;28;20053;-74
2023/01/21 12:35:37;;;;;;;5.97;1.92;;;20.00;55.30;;;;;;5034942;28;20049;-71
2023/01/21 12:38:10;;;;;;;6.72;2.17;;;20.00;55.30;;;;;;5050596;28;20401;-71
2023/01/21 12:40:35;;;;;;;5.57;2.38;;;20.00;55.30;;;;;;5048383;28;20045;-72
2023/01/21 12:43:05;;;;;;;7.13;2.28;;;20.00;55.40;;;;;;5054758;28;20044;-73
2023/01/21 12:45:37;;;;;;;5.20;2.28;;;20.00;55.40;;;;;;5052663;28;20048;-73
2023/01/21 12:48:09;;;;;;;6.47;2.35;;;20.00;55.50;;;;;;5052619;28;20045;-75
2023/01/21 12:50:47;;;;;;;6.32;2.58;;;20.00;55.50;;;;;;5050425;28;20522;-73
2023/01/21 12:53:43;;;;;;;7.45;2.65;;;20.00;55.60;;;;;;5050548;28;20048;-71
2023/01/21 12:56:12;;;;;;;6.70;2.67;;;20.00;55.70;;;;;;5037254;28;20049;-70
2023/01/21 12:58:41;;;;;;;6.55;2.70;;;20.00;55.60;;;;;;5050855;28;20064;-68
2023/01/21 13:01:09;;;;;;;8.10;3.08;;;20.00;55.70;;;;;;5050533;28;20048;-70
2023/01/21 13:03:52;;;;;;;7.25;2.47;;;20.00;55.70;;;;;;5051538;28;20037;-70